Time;durP1;ratioP1;P1;durP2;ratioP2;P2;SDS_P1;SDS_P2;PMS_P1;PMS_P2;Temp;Humidity;BMP_temperature;BMP_pressure;BME280_temperature;BME280_humidity;BME280_pressure;Samples;Min_cycle;Max_cycle;Signal;HPM_P1;HPM_P2
2021/05/03 00:00:14;;;;;;;11.15;9.73;;;;;;;-0.31;100.00;93440.63;2106435;28;20055;-84
2021/05/03 00:01:15;;;;;;;10.68;9.38;;;;;;;-0.27;100.00;93439.59;2114917;28;20122;-85
2021/05/03 00:02:16;;;;;;;10.43;9.32;;;;;;;-0.36;100.00;93439.00;2097781;28;20040;-85
2021/05/03 00:03:17;;;;;;;11.32;10.10;;;;;;;-0.39;100.00;93441.56;2098130;28;20058;-84
2021/05/03 00:04:18;;;;;;;10.82;9.68;;;;;;;-0.37;100.00;93439.34;2093513;28;20178;-84
2021/05/03 00:05:25;;;;;;;11.32;9.90;;;;;;;-0.38;100.00;93443.09;2098129;28;20028;-84
2021/05/03 00:06:25;;;;;;;10.73;9.57;;;;;;;-0.42;100.00;93440.38;2114904;28;20092;-85
2021/05/03 00:07:26;;;;;;;11.82;10.07;;;;;;;-0.44;100.00;93439.16;2120388;27;20031;-84
2021/05/03 00:08:27;;;;;;;11.27;9.73;;;;;;;-0.40;100.00;93440.03;2106430;28;20032;-84
2021/05/03 00:09:27;;;;;;;10.43;9.43;;;;;;;-0.42;100.00;93443.00;2097332;28;20059;-84
2021/05/03 00:10:28;;;;;;;11.10;10.00;;;;;;;-0.47;100.00;93448.50;2092533;28;20036;-84
2021/05/03 00:11:29;;;;;;;12.48;10.82;;;;;;;-0.47;100.00;93442.50;2091233;28;20543;-84
2021/05/03 00:12:30;;;;;;;11.90;10.68;;;;;;;-0.46;100.00;93446.63;2100565;28;20651;-84
2021/05/03 00:13:30;;;;;;;12.63;10.73;;;;;;;-0.53;100.00;93444.59;2097934;28;20056;-85
2021/05/03 00:14:31;;;;;;;11.50;10.35;;;;;;;-0.48;100.00;93446.19;2106396;28;20508;-84
2021/05/03 00:15:32;;;;;;;11.88;10.68;;;;;;;-0.56;100.00;93447.91;2106475;28;20159;-84
2021/05/03 00:16:33;;;;;;;11.13;10.02;;;;;;;-0.55;100.00;93447.56;2100391;28;20101;-83
2021/05/03 00:17:33;;;;;;;13.32;10.75;;;;;;;-0.52;100.00;93454.75;2098021;28;20071;-84
2021/05/03 00:18:34;;;;;;;11.98;10.18;;;;;;;-0.37;100.00;93449.84;2097908;28;20032;-84
2021/05/03 00:19:35;;;;;;;11.27;10.07;;;;;;;-0.38;100.00;93441.22;2098009;28;20055;-84
2021/05/03 00:20:36;;;;;;;11.68;10.48;;;;;;;-0.49;100.00;93442.03;2089554;28;20021;-84
2021/05/03 00:21:36;;;;;;;11.40;10.30;;;;;;;-0.51;100.00;93451.03;2089377;28;20029;-84
2021/05/03 00:22:37;;;;;;;10.60;9.50;;;;;;;-0.52;100.00;93446.88;2106565;28;20136;-85
2021/05/03 00:23:38;;;;;;;10.18;9.18;;;;;;;-0.59;100.00;93443.31;2115129;28;20484;-84
2021/05/03 00:24:38;;;;;;;9.85;8.85;;;;;;;-0.63;100.00;93452.97;2100698;28;20078;-85
2021/05/03 00:25:39;;;;;;;10.77;9.25;;;;;;;-0.75;100.00;93443.28;2097816;28;20456;-85
2021/05/03 00:26:40;;;;;;;11.35;10.13;;;;;;;-0.68;100.00;93453.22;2097855;28;20024;-85
2021/05/03 00:27:40;;;;;;;9.65;8.65;;;;;;;-0.72;100.00;93447.88;2097976;28;20051;-84
2021/05/03 00:28:42;;;;;;;10.90;9.90;;;;;;;-0.83;100.00;93447.59;2115641;27;20072;-84
2021/05/03 00:29:42;;;;;;;10.43;9.32;;;;;;;-0.85;100.00;93454.25;2122294;27;20037;-85
2021/05/03 00:30:43;;;;;;;10.05;9.02;;;;;;;-0.79;100.00;93448.44;2098069;28;20031;-84
2021/05/03 00:31:45;;;;;;;11.20;9.38;;;;;;;-0.78;100.00;93449.97;2113865;28;20039;-84
2021/05/03 00:32:45;;;;;;;10.48;9.38;;;;;;;-0.78;100.00;93449.22;2114433;28;20036;-85
2021/05/03 00:33:46;;;;;;;10.70;9.07;;;;;;;-0.74;100.00;93446.69;2113853;28;20036;-84
2021/05/03 00:34:47;;;;;;;10.23;9.23;;;;;;;-0.80;100.00;93454.03;2114727;28;20039;-85
2021/05/03 00:35:47;;;;;;;10.63;9.50;;;;;;;-0.87;100.00;93452.00;2114769;28;20023;-84
2021/05/03 00:36:48;;;;;;;10.18;8.98;;;;;;;-0.88;100.00;93449.69;2106233;28;20492;-84
2021/05/03 00:37:49;;;;;;;10.57;9.50;;;;;;;-0.90;100.00;93452.66;2106174;28;20042;-84
2021/05/03 00:38:50;;;;;;;10.88;9.75;;;;;;;-0.86;100.00;93458.75;2106061;28;20591;-84
2021/05/03 00:39:50;;;;;;;11.23;10.07;;;;;;;-0.90;100.00;93447.41;2098074;28;20024;-84
2021/05/03 00:40:52;;;;;;;9.98;9.05;;;;;;;-0.93;100.00;93453.31;2098319;28;20075;-84
2021/05/03 00:41:52;;;;;;;10.85;9.75;;;;;;;-0.96;100.00;93446.13;2094321;28;20028;-85
2021/05/03 00:42:53;;;;;;;10.77;9.68;;;;;;;-0.86;100.00;93448.25;2105394;28;20054;-85
2021/05/03 00:43:54;;;;;;;10.93;9.93;;;;;;;-0.90;100.00;93450.03;2099443;28;20040;-84
2021/05/03 00:44:55;;;;;;;10.85;9.38;;;;;;;-0.89;100.00;93445.53;2105931;28;20115;-85
2021/05/03 00:45:55;;;;;;;10.27;9.27;;;;;;;-0.92;100.00;93446.97;2105840;28;20028;-85
2021/05/03 00:46:58;;;;;;;10.18;9.18;;;;;;;-0.80;100.00;93452.16;2106168;28;20081;-84
2021/05/03 00:47:59;;;;;;;10.82;9.15;;;;;;;-0.89;100.00;93446.28;2112382;28;20554;-85
2021/05/03 00:49:00;;;;;;;10.32;9.15;;;;;;;-0.89;100.00;93440.28;2114563;28;20088;-84
2021/05/03 00:50:02;;;;;;;10.13;9.13;;;;;;;-0.88;100.00;93447.84;2105835;28;20492;-85
2021/05/03 00:51:03;;;;;;;10.40;9.40;;;;;;;-0.86;100.00;93447.50;2108161;28;20066;-84
2021/05/03 00:52:04;;;;;;;11.13;9.93;;;;;;;-0.89;100.00;93454.16;2108234;28;20050;-84
2021/05/03 00:53:05;;;;;;;10.90;9.80;;;;;;;-0.88;100.00;93449.69;2112094;28;20385;-84
2021/05/03 00:54:06;;;;;;;11.18;9.40;;;;;;;-0.86;100.00;93453.50;2097883;28;20033;-83
2021/05/03 00:55:08;;;;;;;12.75;10.23;;;;;;;-0.79;100.00;93453.69;2094570;28;20117;-84
2021/05/03 00:56:09;;;;;;;10.85;9.40;;;;;;;-0.92;100.00;93456.69;2103530;28;20028;-84
2021/05/03 00:57:09;;;;;;;11.23;9.40;;;;;;;-1.09;100.00;93461.16;2097512;28;20457;-83
2021/05/03 00:58:11;;;;;;;11.60;9.48;;;;;;;-1.07;100.00;93452.94;2100421;28;20033;-85
2021/05/03 00:59:12;;;;;;;10.88;9.05;;;;;;;-1.05;100.00;93450.75;2119722;27;20737;-84
2021/05/03 01:00:13;;;;;;;10.73;9.40;;;;;;;-1.06;100.00;93446.59;2104307;28;21148;-83
2021/05/03 01:01:14;;;;;;;11.23;9.52;;;;;;;-1.07;100.00;93450.31;2097787;28;20039;-84
2021/05/03 01:02:15;;;;;;;11.75;9.80;;;;;;;-1.04;100.00;93442.53;2093339;28;20542;-84
2021/05/03 01:03:15;;;;;;;10.00;9.00;;;;;;;-1.08;100.00;93446.16;2097578;28;20440;-84
2021/05/03 01:04:16;;;;;;;10.80;9.70;;;;;;;-1.11;100.00;93444.19;2109732;28;20385;-84
2021/05/03 01:05:19;;;;;;;10.50;9.40;;;;;;;-1.18;100.00;93442.16;2114419;28;20061;-83
2021/05/03 01:06:20;;;;;;;10.55;9.45;;;;;;;-1.16;100.00;93441.81;2101845;28;20508;-84
2021/05/03 01:07:21;;;;;;;10.27;8.32;;;;;;;-1.18;100.00;93450.03;2093715;28;20454;-84
2021/05/03 01:08:22;;;;;;;11.32;9.85;;;;;;;-1.16;100.00;93441.81;2101392;28;20067;-85
2021/05/03 01:09:22;;;;;;;9.88;8.98;;;;;;;-1.23;100.00;93442.38;2097317;28;20044;-85
2021/05/03 01:10:23;;;;;;;10.52;9.43;;;;;;;-1.20;100.00;93448.81;2102017;28;20473;-84
2021/05/03 01:11:24;;;;;;;9.75;8.73;;;;;;;-1.19;100.00;93445.84;2105781;28;20032;-84
2021/05/03 01:12:25;;;;;;;10.68;9.27;;;;;;;-1.22;100.00;93446.53;2110958;28;20035;-84
2021/05/03 01:13:26;;;;;;;11.73;8.93;;;;;;;-1.15;100.00;93445.97;2111044;28;20031;-84
2021/05/03 01:14:27;;;;;;;10.30;9.20;;;;;;;-1.16;100.00;93449.69;2089338;28;20389;-84
2021/05/03 01:15:28;;;;;;;10.23;9.13;;;;;;;-1.13;100.00;93447.16;2102999;28;20031;-84
2021/05/03 01:16:28;;;;;;;10.07;9.07;;;;;;;-1.16;100.00;93444.44;2103258;28;20859;-83
2021/05/03 01:17:31;;;;;;;10.65;9.27;;;;;;;-1.18;100.00;93451.91;2100183;28;20036;-83
2021/05/03 01:18:36;;;;;;;10.68;9.57;;;;;;;-1.18;100.00;93451.91;2103884;28;20038;-84
2021/05/03 01:19:36;;;;;;;10.30;9.25;;;;;;;-1.23;100.00;93455.50;2098579;28;20074;-83
2021/05/03 01:20:38;;;;;;;9.88;8.95;;;;;;;-1.17;100.00;93456.78;2105900;28;20423;-84
2021/05/03 01:21:39;;;;;;;10.73;9.57;;;;;;;-1.18;100.00;93447.41;2113954;28;20032;-85
2021/05/03 01:22:39;;;;;;;10.73;9.65;;;;;;;-1.15;100.00;93451.22;2114301;28;20027;-84
2021/05/03 01:23:40;;;;;;;9.80;8.90;;;;;;;-1.13;100.00;93454.28;2097811;28;20024;-85
2021/05/03 01:24:41;;;;;;;9.93;8.93;;;;;;;-1.15;100.00;93462.47;2097471;28;20029;-84
2021/05/03 01:25:42;;;;;;;10.60;9.05;;;;;;;-1.20;100.00;93452.22;2097183;28;20409;-84
2021/05/03 01:26:43;;;;;;;10.63;9.02;;;;;;;-1.18;100.00;93454.53;2097448;28;20094;-85
2021/05/03 01:27:44;;;;;;;9.32;8.43;;;;;;;-1.21;100.00;93457.78;2097485;28;20485;-85
2021/05/03 01:28:45;;;;;;;10.80;8.52;;;;;;;-1.19;100.00;93456.34;2105843;28;20985;-84
2021/05/03 01:29:46;;;;;;;9.75;8.75;;;;;;;-1.18;100.00;93460.53;2105914;28;20063;-85
2021/05/03 01:30:48;;;;;;;9.85;8.95;;;;;;;-1.20;100.00;93454.81;2105797;28;20028;-84
2021/05/03 01:31:50;;;;;;;10.05;9.02;;;;;;;-1.21;100.00;93458.56;2114250;27;20024;-84
2021/05/03 01:32:50;;;;;;;11.52;8.88;;;;;;;-1.19;100.00;93458.22;2114168;28;20433;-84
2021/05/03 01:33:51;;;;;;;9.07;8.23;;;;;;;-1.19;100.00;93455.59;2105392;28;20028;-83
2021/05/03 01:34:51;;;;;;;10.07;8.38;;;;;;;-1.31;100.00;93453.78;2097387;28;20029;-84
2021/05/03 01:35:52;;;;;;;9.30;8.25;;;;;;;-1.35;100.00;93458.94;2097335;28;20016;-85
2021/05/03 01:36:53;;;;;;;10.00;8.68;;;;;;;-1.31;100.00;93454.53;2089092;28;20036;-84
2021/05/03 01:37:56;;;;;;;9.20;8.32;;;;;;;-1.24;100.00;93466.31;2089657;28;20071;-84
2021/05/03 01:38:56;;;;;;;8.95;8.10;;;;;;;-1.20;100.00;93462.69;2097721;28;20831;-85
2021/05/03 01:39:57;;;;;;;9.27;8.38;;;;;;;-1.34;100.00;93457.06;2104392;28;20032;-84
2021/05/03 01:40:58;;;;;;;9.10;8.23;;;;;;;-1.25;100.00;93464.81;2090345;28;20107;-84
2021/05/03 01:42:00;;;;;;;9.57;8.60;;;;;;;-1.32;100.00;93460.09;2097228;28;20024;-83
2021/05/03 01:43:12;;;;;;;9.68;8.38;;;;;;;-1.32;100.00;93460.09;2105526;28;20478;-84
2021/05/03 01:44:15;;;;;;;9.18;8.27;;;;;;;-1.31;100.00;93470.28;2107168;28;20404;-84
2021/05/03 01:45:21;;;;;;;11.48;9.38;;;;;;;-1.30;100.00;93463.94;2106372;28;21434;-84
2021/05/03 01:46:23;;;;;;;9.23;8.32;;;;;;;-1.28;100.00;93466.22;2101899;28;20541;-85
2021/05/03 01:47:24;;;;;;;9.77;8.88;;;;;;;-1.28;100.00;93466.22;2110707;28;20456;-85
2021/05/03 01:48:29;;;;;;;10.65;9.45;;;;;;;-1.30;100.00;93463.19;2105769;28;20469;-85
2021/05/03 01:49:30;;;;;;;9.98;9.02;;;;;;;-1.29;100.00;93459.44;2106347;28;20111;-85
2021/05/03 01:50:31;;;;;;;9.90;8.93;;;;;;;-1.36;100.00;93457.41;2105533;28;20458;-85
2021/05/03 01:51:34;;;;;;;9.80;8.80;;;;;;;-1.34;100.00;93465.69;2103176;28;20032;-84
2021/05/03 01:52:37;;;;;;;10.10;9.10;;;;;;;-1.31;100.00;93459.03;2104108;28;20036;-84
2021/05/03 01:53:38;;;;;;;10.13;9.13;;;;;;;-1.32;100.00;93460.09;2097447;28;20501;-84
2021/05/03 01:54:39;;;;;;;10.40;9.35;;;;;;;-1.30;100.00;93461.31;2097125;28;21225;-85
2021/05/03 01:55:40;;;;;;;10.65;9.60;;;;;;;-1.29;100.00;93457.59;2105364;28;20055;-83
2021/05/03 01:56:41;;;;;;;11.77;10.48;;;;;;;-1.25;100.00;93459.56;2113616;28;20038;-85
2021/05/03 01:57:41;;;;;;;11.07;9.55;;;;;;;-1.23;100.00;93459.97;2105328;28;20028;-85
2021/05/03 01:58:42;;;;;;;11.20;10.05;;;;;;;-1.25;100.00;93460.31;2096851;28;20082;-84
2021/05/03 01:59:43;;;;;;;11.63;10.45;;;;;;;-1.24;100.00;93463.69;2105653;28;20034;-84
2021/05/03 02:00:44;;;;;;;11.50;9.95;;;;;;;-1.19;100.00;93453.72;2114008;28;20440;-84
2021/05/03 02:01:45;;;;;;;11.27;10.10;;;;;;;-1.16;100.00;93454.94;2105726;28;20488;-84
2021/05/03 02:02:47;;;;;;;11.18;10.07;;;;;;;-1.18;100.00;93457.13;2093331;28;20455;-84
2021/05/03 02:04:56;;;;;;;;;;;;;;;-1.16;100.00;93457.56;2148864;27;20109;-87
2021/05/03 02:05:57;;;;;;;10.18;8.98;;;;;;;-1.17;100.00;93454.19;2130060;27;19938;-83
2021/05/03 02:06:58;;;;;;;10.82;9.73;;;;;;;-1.19;100.00;93463.47;2121500;27;20031;-88
2021/05/03 02:08:01;;;;;;;11.30;10.18;;;;;;;-1.18;100.00;93457.13;2121399;28;20027;-86
2021/05/03 02:09:09;;;;;;;11.25;10.10;;;;;;;-1.12;100.00;93451.31;2122005;27;20677;-85
2021/05/03 02:10:10;;;;;;;11.63;10.25;;;;;;;-1.18;100.00;93451.91;2122240;27;20445;-83
2021/05/03 02:11:10;;;;;;;11.48;10.25;;;;;;;-1.17;100.00;93461.28;2118683;28;20418;-87
2021/05/03 02:12:12;;;;;;;11.57;9.95;;;;;;;-1.28;100.00;93451.25;2110669;28;20456;-85
2021/05/03 02:13:13;;;;;;;11.07;9.90;;;;;;;-1.31;100.00;93456.41;2126870;27;20031;-84
2021/05/03 02:14:14;;;;;;;11.63;10.40;;;;;;;-1.30;100.00;93453.44;2121380;28;21028;-85
2021/05/03 02:15:15;;;;;;;11.55;10.35;;;;;;;-1.26;100.00;93458.78;2096310;28;20455;-85
2021/05/03 02:16:16;;;;;;;12.88;10.43;;;;;;;-1.30;100.00;93450.06;2116752;27;20027;-85
2021/05/03 02:17:16;;;;;;;10.85;9.65;;;;;;;-1.29;100.00;93454.97;2121588;27;20034;-87
2021/05/03 02:18:18;;;;;;;12.07;10.77;;;;;;;-1.29;100.00;93462.84;2113003;28;20081;-87
2021/05/03 02:19:18;;;;;;;11.07;9.95;;;;;;;-1.31;100.00;93456.41;2120997;27;20027;-86
2021/05/03 02:20:19;;;;;;;11.05;9.93;;;;;;;-1.32;100.00;93450.41;2121706;27;20042;-85
2021/05/03 02:21:19;;;;;;;10.63;9.52;;;;;;;-1.32;100.00;93455.66;2120503;28;20050;-87
2021/05/03 02:22:20;;;;;;;11.77;10.57;;;;;;;-1.31;100.00;93453.78;2104178;28;20458;-84
2021/05/03 02:23:21;;;;;;;11.18;9.98;;;;;;;-1.36;100.00;93454.00;2112575;28;20023;-85
2021/05/03 02:24:22;;;;;;;10.45;9.05;;;;;;;-1.37;100.00;93452.47;2121050;28;20046;-84
2021/05/03 02:25:22;;;;;;;11.85;10.00;;;;;;;-1.30;100.00;93452.69;2121582;28;20027;-84
2021/05/03 02:26:23;;;;;;;10.20;9.20;;;;;;;-1.36;100.00;93459.25;2117554;28;20490;-84
2021/05/03 02:27:24;;;;;;;10.77;9.68;;;;;;;-1.30;100.00;93461.31;2121531;28;20062;-83
2021/05/03 02:28:24;;;;;;;11.43;10.23;;;;;;;-1.36;100.00;93456.63;2122828;27;20027;-85
2021/05/03 02:29:25;;;;;;;11.32;10.10;;;;;;;-1.36;100.00;93454.78;2121463;28;20027;-86
2021/05/03 02:30:27;;;;;;;13.18;9.95;;;;;;;-1.39;100.00;93454.69;2129904;27;20110;-84
2021/05/03 02:31:27;;;;;;;11.30;10.15;;;;;;;-1.39;100.00;93454.69;2129834;27;20247;-85
2021/05/03 02:32:28;;;;;;;10.77;9.55;;;;;;;-1.38;100.00;93456.19;2115792;28;20043;-84
2021/05/03 02:33:29;;;;;;;10.52;9.43;;;;;;;-1.36;100.00;93457.41;2118372;27;20499;-85
2021/05/03 02:34:30;;;;;;;11.60;9.98;;;;;;;-1.31;100.00;93457.16;2136564;27;20029;-84
2021/05/03 02:35:33;;;;;;;10.57;9.57;;;;;;;-1.34;100.00;93460.44;2138993;27;20434;-83
2021/05/03 02:36:34;;;;;;;11.30;9.77;;;;;;;-1.29;100.00;93460.22;2129729;27;20023;-87
2021/05/03 02:37:35;;;;;;;10.90;9.77;;;;;;;-1.31;100.00;93459.78;2129763;27;20999;-85
2021/05/03 02:38:36;;;;;;;10.95;9.68;;;;;;;-1.42;100.00;93456.09;2125408;27;20476;-84
2021/05/03 02:39:37;;;;;;;10.52;9.50;;;;;;;-1.47;100.00;93458.19;2121310;28;20062;-83
2021/05/03 02:40:37;;;;;;;13.85;9.68;;;;;;;-1.43;100.00;93461.69;2112855;28;20393;-81
2021/05/03 02:41:38;;;;;;;10.35;9.25;;;;;;;-1.42;100.00;93452.72;2112582;28;20024;-86
2021/05/03 02:42:39;;;;;;;11.43;9.93;;;;;;;-1.41;100.00;93457.59;2124042;27;20039;-84
2021/05/03 02:43:41;;;;;;;11.07;9.82;;;;;;;-1.41;100.00;93460.22;2116786;28;20441;-86
2021/05/03 02:44:42;;;;;;;10.13;9.13;;;;;;;-1.41;100.00;93456.84;2129692;27;20453;-84
2021/05/03 02:45:43;;;;;;;10.30;9.27;;;;;;;-1.42;100.00;93455.34;2121258;27;20090;-86
2021/05/03 02:46:44;;;;;;;10.70;9.60;;;;;;;-1.47;100.00;93447.69;2113197;28;20449;-83
2021/05/03 02:47:45;;;;;;;11.10;10.00;;;;;;;-1.44;100.00;93460.16;2104166;28;20891;-83
2021/05/03 02:48:45;;;;;;;10.70;9.60;;;;;;;-1.48;100.00;93454.81;2112810;27;20032;-87
2021/05/03 02:49:46;;;;;;;11.63;10.20;;;;;;;-1.48;100.00;93452.19;2121074;28;20027;-82
2021/05/03 02:50:47;;;;;;;11.32;9.43;;;;;;;-1.51;100.00;93458.06;2120992;28;20051;-87
2021/05/03 02:51:48;;;;;;;10.77;9.68;;;;;;;-1.48;100.00;93459.28;2121131;27;20599;-85
2021/05/03 02:52:50;;;;;;;11.60;10.10;;;;;;;-1.43;100.00;93459.06;2129446;27;20030;-83
2021/05/03 02:53:51;;;;;;;13.77;9.95;;;;;;;-1.43;100.00;93453.81;2112976;27;20827;-85
2021/05/03 02:54:51;;;;;;;10.35;9.35;;;;;;;-1.48;100.00;93456.66;2112769;28;20027;-86
2021/05/03 02:55:52;;;;;;;10.88;9.77;;;;;;;-1.54;100.00;93454.28;2104459;28;20095;-85
2021/05/03 02:56:53;;;;;;;14.82;10.35;;;;;;;-1.55;100.00;93457.97;2112523;28;20039;-85
2021/05/03 02:57:54;;;;;;;11.88;9.80;;;;;;;-1.51;100.00;93458.06;2112067;28;20024;-85
2021/05/03 02:58:54;;;;;;;10.95;9.85;;;;;;;-1.49;100.00;93457.75;2103677;28;20035;-85
2021/05/03 02:59:55;;;;;;;10.60;9.50;;;;;;;-1.48;100.00;93454.81;2105226;28;20435;-81
2021/05/03 03:00:56;;;;;;;11.35;9.65;;;;;;;-1.54;100.00;93456.09;2108378;28;20032;-83
2021/05/03 03:01:57;;;;;;;10.77;9.68;;;;;;;-1.50;100.00;93458.84;2112024;28;20520;-84
2021/05/03 03:02:58;;;;;;;11.73;9.48;;;;;;;-1.54;100.00;93456.91;2115616;28;20065;-83
2021/05/03 03:03:59;;;;;;;10.38;9.35;;;;;;;-1.56;100.00;93453.06;2105888;28;20596;-86
2021/05/03 03:05:00;;;;;;;10.82;9.05;;;;;;;-1.62;100.00;93463.03;2104304;28;20446;-85
2021/05/03 03:06:00;;;;;;;10.60;9.50;;;;;;;-1.63;100.00;93464.09;2115517;27;20016;-85
2021/05/03 03:07:01;;;;;;;10.25;9.10;;;;;;;-1.62;100.00;93455.16;2107299;28;20024;-84
2021/05/03 03:08:02;;;;;;;9.65;8.75;;;;;;;-1.62;100.00;93459.66;2097365;28;20413;-83
2021/05/03 03:09:06;;;;;;;10.40;9.27;;;;;;;-1.75;100.00;93458.13;2107837;28;20023;-87
2021/05/03 03:10:07;;;;;;;10.77;9.52;;;;;;;-1.77;100.00;93461.06;2108997;27;20504;-85
2021/05/03 03:11:08;;;;;;;10.63;9.52;;;;;;;-1.69;100.00;93457.56;2120573;27;20433;-84
2021/05/03 03:12:10;;;;;;;10.15;9.13;;;;;;;-1.66;100.00;93462.16;2120895;28;20775;-83
2021/05/03 03:13:11;;;;;;;11.30;10.13;;;;;;;-1.70;100.00;93458.66;2116865;27;20032;-84
2021/05/03 03:14:12;;;;;;;13.63;10.30;;;;;;;-1.74;100.00;93462.28;2126493;27;20502;-85
2021/05/03 03:15:18;;;;;;;10.32;9.32;;;;;;;-1.71;100.00;93461.59;2127411;27;20117;-86
2021/05/03 03:16:25;;;;;;;11.30;9.90;;;;;;;-1.72;100.00;93462.69;2132288;27;20112;-84
2021/05/03 03:17:25;;;;;;;11.35;9.52;;;;;;;-1.69;100.00;93462.03;2107265;28;20115;-83
2021/05/03 03:18:26;;;;;;;11.25;10.00;;;;;;;-1.72;100.00;93462.69;2103240;28;20465;-85
2021/05/03 03:19:27;;;;;;;11.93;9.98;;;;;;;-1.75;100.00;93458.91;2098322;28;20432;-83
2021/05/03 03:20:29;;;;;;;11.98;10.07;;;;;;;-1.70;100.00;93460.53;2098331;28;20414;-85
2021/05/03 03:21:29;;;;;;;10.40;9.43;;;;;;;-1.74;100.00;93468.28;2110182;28;20102;-84
2021/05/03 03:22:30;;;;;;;10.50;9.40;;;;;;;-1.72;100.00;93463.44;2112237;28;21153;-83
2021/05/03 03:23:31;;;;;;;10.38;9.20;;;;;;;-1.72;100.00;93462.69;2110890;28;20519;-86
2021/05/03 03:24:32;;;;;;;10.30;9.20;;;;;;;-1.79;100.00;93455.41;2098160;28;20136;-85
2021/05/03 03:25:32;;;;;;;11.75;9.38;;;;;;;-1.76;100.00;93459.97;2089933;28;20025;-85
2021/05/03 03:26:33;;;;;;;10.40;9.32;;;;;;;-1.78;100.00;93460.31;2089990;28;20068;-84
2021/05/03 03:27:34;;;;;;;12.63;9.25;;;;;;;-1.77;100.00;93456.59;2090139;28;20064;-82
2021/05/03 03:28:35;;;;;;;10.38;9.27;;;;;;;-1.72;100.00;93460.84;2106907;28;20024;-86
2021/05/03 03:29:35;;;;;;;10.80;9.70;;;;;;;-1.77;100.00;93453.97;2106454;28;20434;-85
2021/05/03 03:30:36;;;;;;;10.73;9.27;;;;;;;-1.75;100.00;93461.50;2098489;28;20021;-84
2021/05/03 03:31:37;;;;;;;10.05;9.05;;;;;;;-1.71;100.00;93461.59;2089991;28;20017;-85
2021/05/03 03:32:41;;;;;;;10.93;9.35;;;;;;;-1.71;100.00;93462.38;2089987;28;20017;-85
2021/05/03 03:33:42;;;;;;;10.45;9.27;;;;;;;-1.77;100.00;93459.19;2098726;28;20103;-84
2021/05/03 03:34:43;;;;;;;11.00;9.25;;;;;;;-1.77;100.00;93466.31;2089600;28;20467;-84
2021/05/03 03:35:43;;;;;;;10.45;9.07;;;;;;;-1.84;100.00;93471.34;2087934;28;20024;-87
2021/05/03 03:36:45;;;;;;;10.68;9.57;;;;;;;-1.83;100.00;93468.38;2106748;28;20567;-84
2021/05/03 03:37:47;;;;;;;10.00;9.02;;;;;;;-1.82;100.00;93461.28;2106643;28;20419;-85
2021/05/03 03:38:48;;;;;;;10.60;9.45;;;;;;;-1.84;100.00;93463.50;2090717;28;20029;-85
2021/05/03 03:39:49;;;;;;;12.50;8.93;;;;;;;-1.87;100.00;93462.28;2098393;28;20434;-87
2021/05/03 03:40:49;;;;;;;11.77;9.45;;;;;;;-1.91;100.00;93471.13;2106397;28;20434;-85
2021/05/03 03:41:50;;;;;;;11.38;9.45;;;;;;;-1.93;100.00;93465.44;2098092;28;20017;-84
2021/05/03 03:42:51;;;;;;;10.15;9.13;;;;;;;-1.94;100.00;93472.53;2102493;28;20424;-84
2021/05/03 03:43:51;;;;;;;10.13;9.15;;;;;;;-1.97;100.00;93467.19;2106553;28;20031;-84
2021/05/03 03:44:52;;;;;;;9.88;8.90;;;;;;;-1.94;100.00;93475.16;2106517;28;20106;-85
2021/05/03 03:45:53;;;;;;;10.52;9.43;;;;;;;-1.94;100.00;93474.38;2098240;28;20036;-84
2021/05/03 03:46:53;;;;;;;10.80;9.70;;;;;;;-1.97;100.00;93469.81;2092591;28;20079;-85
2021/05/03 03:47:54;;;;;;;11.05;9.80;;;;;;;-1.91;100.00;93478.97;2098123;28;20032;-84
2021/05/03 03:48:55;;;;;;;10.93;9.82;;;;;;;-1.93;100.00;93471.47;2114929;28;20468;-86
2021/05/03 03:49:55;;;;;;;11.32;9.55;;;;;;;-1.94;100.00;93469.16;2107133;28;20023;-85
2021/05/03 03:50:56;;;;;;;11.18;9.95;;;;;;;-1.86;100.00;93476.13;2105724;28;20016;-84
2021/05/03 03:51:57;;;;;;;12.73;9.63;;;;;;;-1.94;100.00;93477.75;2099757;28;20078;-85
2021/05/03 03:52:58;;;;;;;10.52;9.32;;;;;;;-1.90;100.00;93475.25;2114906;28;20027;-84
2021/05/03 03:53:59;;;;;;;12.55;9.93;;;;;;;-1.99;100.00;93472.75;2106972;28;20107;-86
2021/05/03 03:55:00;;;;;;;10.45;9.40;;;;;;;-1.98;100.00;93474.28;2098282;28;20431;-86
2021/05/03 03:56:01;;;;;;;10.65;9.55;;;;;;;-1.97;100.00;93473.19;2098298;28;20020;-85
2021/05/03 03:57:02;;;;;;;11.27;10.02;;;;;;;-2.03;100.00;93482.34;2098121;28;20052;-83
2021/05/03 03:58:03;;;;;;;13.73;10.45;;;;;;;-1.96;100.00;93477.34;2108227;27;20086;-87
2021/05/03 03:59:06;;;;;;;13.25;10.27;;;;;;;-1.92;100.00;93474.84;2131642;27;20424;-84
2021/05/03 04:00:08;;;;;;;15.05;10.57;;;;;;;-1.96;100.00;93479.97;2114881;28;20564;-86
2021/05/03 04:01:10;;;;;;;12.63;10.07;;;;;;;-1.99;100.00;93472.75;2106765;27;20430;-82
2021/05/03 04:02:11;;;;;;;10.70;9.68;;;;;;;-1.99;100.00;93479.84;2115097;28;20915;-84
2021/05/03 04:03:12;;;;;;;12.27;10.55;;;;;;;-2.01;100.00;93482.03;2106397;28;20457;-84
2021/05/03 04:04:20;;;;;;;12.43;10.70;;;;;;;-1.99;100.00;93480.59;2106090;28;20027;-84
2021/05/03 04:05:34;;;;;;;11.63;10.30;;;;;;;-2.01;100.00;93480.19;2107456;28;20114;-82
2021/05/03 04:09:23;;;;;;;12.23;10.15;;;;;;;-2.01;100.00;93479.41;2116122;27;20422;-87
2021/05/03 04:11:27;;;;;;;10.40;9.38;;;;;;;-2.06;100.00;93489.03;2120398;27;20425;-87
2021/05/03 04:25:38;;;;;;;15.82;10.07;;;;;;;-1.91;100.00;93494.69;2114576;28;20457;-81
2021/05/03 04:26:39;;;;;;;12.57;9.95;;;;;;;-1.93;100.00;93499.47;2108156;28;20462;-83
2021/05/03 04:27:39;;;;;;;17.52;9.95;;;;;;;-2.03;100.00;93501.44;2098601;28;20447;-83
2021/05/03 04:28:40;;;;;;;14.70;11.45;;;;;;;-1.99;100.00;93506.03;2104065;28;20028;-83
2021/05/03 04:29:41;;;;;;;15.05;10.43;;;;;;;-2.01;100.00;93505.63;2091008;28;20021;-82
2021/05/03 04:30:41;;;;;;;12.95;9.80;;;;;;;-2.06;100.00;93502.13;2097978;28;20021;-85
2021/05/03 04:31:42;;;;;;;13.30;10.75;;;;;;;-2.04;100.00;93505.16;2120398;27;20030;-85
2021/05/03 04:32:43;;;;;;;11.32;10.13;;;;;;;-2.01;100.00;93505.63;2123192;27;20027;-81
2021/05/03 04:33:44;;;;;;;12.05;10.02;;;;;;;-2.05;100.00;93503.63;2114460;28;20112;-82
2021/05/03 04:34:44;;;;;;;12.77;10.32;;;;;;;-2.09;100.00;93505.38;2098588;28;20548;-81
2021/05/03 04:35:45;;;;;;;11.90;10.13;;;;;;;-2.11;100.00;93507.56;2096623;28;20031;-84
2021/05/03 04:36:45;;;;;;;11.50;10.27;;;;;;;-2.08;100.00;93503.53;2098708;28;20087;-81
2021/05/03 04:37:46;;;;;;;11.43;9.43;;;;;;;-2.05;100.00;93508.88;2121522;27;20054;-85
2021/05/03 04:38:47;;;;;;;13.40;11.60;;;;;;;-1.95;100.00;93509.53;2115324;27;20115;-85
2021/05/03 04:39:48;;;;;;;13.50;10.38;;;;;;;-2.01;100.00;93509.00;2113869;28;20020;-85
2021/05/03 04:40:48;;;;;;;11.23;10.02;;;;;;;-2.04;100.00;93502.53;2106525;28;20411;-84
2021/05/03 04:41:49;;;;;;;11.07;9.63;;;;;;;-1.97;100.00;93506.50;2122663;27;20034;-84
2021/05/03 04:42:50;;;;;;;12.05;9.95;;;;;;;-1.95;100.00;93510.28;2097728;28;20504;-86
2021/05/03 04:43:50;;;;;;;10.23;9.23;;;;;;;-2.01;100.00;93511.63;2106061;28;20035;-86
2021/05/03 04:44:51;;;;;;;10.52;9.48;;;;;;;-1.97;100.00;93507.25;2105984;28;20027;-83
2021/05/03 04:45:52;;;;;;;9.77;8.77;;;;;;;-2.00;100.00;93517.63;2110076;28;20019;-85
2021/05/03 04:46:52;;;;;;;11.93;9.35;;;;;;;-1.92;100.00;93508.88;2106213;28;20027;-84
2021/05/03 04:47:53;;;;;;;10.73;9.60;;;;;;;-1.90;100.00;93515.31;2114316;28;20024;-85
2021/05/03 04:48:54;;;;;;;11.15;10.05;;;;;;;-1.89;100.00;93510.84;2122941;27;20491;-82
2021/05/03 04:49:54;;;;;;;10.55;9.43;;;;;;;-1.98;100.00;93516.19;2111507;28;20032;-82
2021/05/03 04:50:55;;;;;;;10.57;9.55;;;;;;;-1.90;100.00;93515.31;2100789;28;20050;-83
2021/05/03 04:51:56;;;;;;;9.88;8.88;;;;;;;-1.89;100.00;93503.75;2111030;28;20020;-84
2021/05/03 04:52:57;;;;;;;11.00;9.52;;;;;;;-1.88;100.00;93513.16;2109458;28;20461;-84
2021/05/03 04:53:58;;;;;;;12.18;9.60;;;;;;;-1.87;100.00;93509.44;2106175;28;20023;-87
2021/05/03 04:54:59;;;;;;;10.45;9.45;;;;;;;-1.90;100.00;93511.94;2110817;28;20985;-87
2021/05/03 04:56:01;;;;;;;10.38;9.38;;;;;;;-1.86;100.00;93507.56;2096767;28;20130;-83
2021/05/03 04:57:02;;;;;;;10.65;9.55;;;;;;;-1.89;100.00;93513.44;2101931;28;20016;-87
2021/05/03 04:58:03;;;;;;;10.30;9.30;;;;;;;-1.89;100.00;93509.00;2097428;28;20423;-82
2021/05/03 04:59:04;;;;;;;11.52;9.73;;;;;;;-1.83;100.00;93510.31;2109711;28;20030;-85